createdAt,value
2018-09-18T00:00:56.083Z,15.35
2018-09-18T00:01:56.063Z,15.43
2018-09-18T00:02:56.201Z,15.36
2018-09-18T00:03:56.568Z,15.43
2018-09-18T00:04:56.028Z,15.33
2018-09-18T00:05:56.015Z,15.35
2018-09-18T00:06:56.009Z,15.31
2018-09-18T00:07:56.045Z,15.36
2018-09-18T00:08:55.992Z,15.40
2018-09-18T00:09:56.231Z,15.24
2018-09-18T00:10:55.959Z,15.24
2018-09-18T00:11:55.951Z,15.21
2018-09-18T00:12:56.706Z,15.28
2018-09-18T00:13:55.930Z,15.27
2018-09-18T00:14:56.033Z,15.22
2018-09-18T00:15:55.905Z,15.27
2018-09-18T00:16:55.894Z,15.27
2018-09-18T00:17:56.146Z,15.22
2018-09-18T00:18:56.011Z,15.25
2018-09-18T00:19:55.866Z,15.24
2018-09-18T00:20:55.850Z,15.21
2018-09-18T00:21:56.160Z,15.24
2018-09-18T00:22:55.829Z,15.21
2018-09-18T00:23:55.828Z,15.21
2018-09-18T00:24:55.808Z,15.29
2018-09-18T00:25:55.795Z,15.22
2018-09-18T00:26:55.889Z,15.27
2018-09-18T00:27:55.776Z,15.25
2018-09-18T00:28:55.762Z,15.28
2018-09-18T00:29:55.754Z,15.29
2018-09-18T00:30:56.109Z,15.28
2018-09-18T00:31:55.729Z,15.27
2018-09-18T00:32:55.987Z,15.22
2018-09-18T00:33:55.709Z,15.31
2018-09-18T00:34:55.706Z,15.19
2018-09-18T00:35:55.686Z,15.19
2018-09-18T00:36:55.674Z,15.21
2018-09-18T00:37:55.665Z,15.27
2018-09-18T00:38:55.666Z,15.18
2018-09-18T00:39:55.648Z,15.19
2018-09-18T00:40:55.648Z,15.22
2018-09-18T00:41:55.618Z,15.25
2018-09-18T00:42:55.610Z,15.28
2018-09-18T00:43:55.609Z,15.27
2018-09-18T00:44:55.710Z,15.25
2018-09-18T00:45:55.590Z,15.19
2018-09-18T00:46:55.606Z,15.22
2018-09-18T00:47:55.555Z,15.21
2018-09-18T00:48:55.558Z,15.24
2018-09-18T00:49:55.552Z,15.19
2018-09-18T00:50:55.520Z,15.24
2018-09-18T00:51:55.513Z,15.24
2018-09-18T00:52:55.503Z,15.22
2018-09-18T00:53:55.608Z,15.24
2018-09-18T00:54:55.744Z,15.24
2018-09-18T00:55:55.476Z,15.21
2018-09-18T00:56:55.465Z,15.27
2018-09-18T00:57:55.449Z,15.22
2018-09-18T00:58:55.433Z,15.25
2018-09-18T00:59:55.428Z,15.25
2018-09-18T01:00:55.429Z,15.25
2018-09-18T01:01:55.404Z,15.25
2018-09-18T01:02:55.385Z,15.24
2018-09-18T01:03:55.389Z,15.22
2018-09-18T01:04:55.367Z,15.29
2018-09-18T01:05:55.493Z,15.22
2018-09-18T01:06:56.114Z,15.36
2018-09-18T01:07:55.338Z,15.22
2018-09-18T01:08:55.327Z,15.36
2018-09-18T01:09:55.576Z,15.35
2018-09-18T01:10:55.307Z,15.37
2018-09-18T01:11:55.291Z,15.42
2018-09-18T01:12:55.278Z,15.43
2018-09-18T01:13:55.271Z,15.46
2018-09-18T01:14:55.258Z,15.42
2018-09-18T01:15:55.258Z,15.46
2018-09-18T01:16:55.499Z,15.52
2018-09-18T01:17:55.239Z,15.54
2018-09-18T01:18:55.217Z,15.49
2018-09-18T01:19:55.202Z,15.54
2018-09-18T01:20:55.188Z,15.51
2018-09-18T01:21:55.454Z,15.52
2018-09-18T01:22:55.173Z,15.55
2018-09-18T01:23:55.521Z,15.57
2018-09-18T01:24:55.148Z,15.59
2018-09-18T01:25:55.136Z,15.58
2018-09-18T01:26:55.127Z,15.61
2018-09-18T01:27:55.118Z,15.59
2018-09-18T01:28:55.141Z,15.55
2018-09-18T01:29:55.107Z,15.73
2018-09-18T01:30:55.083Z,15.79
2018-09-18T01:31:55.071Z,15.73
2018-09-18T01:32:55.061Z,15.76
2018-09-18T01:33:55.051Z,15.77
2018-09-18T01:34:55.091Z,15.79
2018-09-18T01:35:55.026Z,15.82
2018-09-18T01:36:55.018Z,15.80
2018-09-18T01:37:55.265Z,15.76
2018-09-18T01:38:54.992Z,15.72
2018-09-18T01:39:54.985Z,15.75
2018-09-18T01:40:55.077Z,15.76
2018-09-18T01:41:54.965Z,15.72
2018-09-18T01:42:55.212Z,15.68
2018-09-18T01:43:55.001Z,15.65
2018-09-18T01:44:54.929Z,15.68
2018-09-18T01:45:55.175Z,15.72
2018-09-18T01:46:54.931Z,15.67
2018-09-18T01:47:54.894Z,15.75
2018-09-18T01:48:54.883Z,15.72
2018-09-18T01:49:54.878Z,15.72
2018-09-18T01:50:54.858Z,15.73
2018-09-18T01:51:55.225Z,15.72
2018-09-18T01:52:54.838Z,15.75
2018-09-18T01:53:54.826Z,15.72
2018-09-18T01:54:55.086Z,15.76
2018-09-18T01:55:54.807Z,15.73
2018-09-18T01:56:54.793Z,15.72
2018-09-18T01:57:54.788Z,15.64
2018-09-18T01:58:55.039Z,15.61
2018-09-18T01:59:55.055Z,15.57
2018-09-18T02:00:54.766Z,15.46
2018-09-18T02:01:54.742Z,15.47
2018-09-18T02:02:54.727Z,15.44
2018-09-18T02:03:55.893Z,15.39
2018-09-18T02:04:54.721Z,15.21
2018-09-18T02:05:54.715Z,15.25
2018-09-18T02:06:54.805Z,15.19
2018-09-18T02:07:54.676Z,15.19
2018-09-18T02:08:54.663Z,15.11
2018-09-18T02:09:54.654Z,15.07
2018-09-18T02:10:54.913Z,15.03
2018-09-18T02:11:54.630Z,15.03
2018-09-18T02:12:54.899Z,15.04
2018-09-18T02:13:54.610Z,15.06
2018-09-18T02:14:54.598Z,15.03
2018-09-18T02:15:54.591Z,14.99
2018-09-18T02:16:54.577Z,14.99
2018-09-18T02:17:54.565Z,14.99
2018-09-18T02:18:54.832Z,14.99
2018-09-18T02:19:54.545Z,14.97
2018-09-18T02:20:54.535Z,14.85
2018-09-18T02:21:54.524Z,14.84
2018-09-18T02:22:54.509Z,14.82
2018-09-18T02:23:54.500Z,14.85
2018-09-18T02:24:54.756Z,14.78
2018-09-18T02:25:54.496Z,14.85
2018-09-18T02:26:54.545Z,14.81
2018-09-18T02:27:54.455Z,14.85
2018-09-18T02:28:54.444Z,15.00
2018-09-18T02:29:54.435Z,14.97
2018-09-18T02:30:54.426Z,14.96
2018-09-18T02:31:54.422Z,14.99
2018-09-18T02:32:54.398Z,14.97
2018-09-18T02:33:54.387Z,14.97
2018-09-18T02:34:54.378Z,14.96
2018-09-18T02:35:54.370Z,14.97
2018-09-18T02:36:54.356Z,14.94
2018-09-18T02:37:54.343Z,15.03
2018-09-18T02:38:54.338Z,15.02
2018-09-18T02:39:54.349Z,14.99
2018-09-18T02:40:54.314Z,14.99
2018-09-18T02:41:54.305Z,15.03
2018-09-18T02:42:54.308Z,14.99
2018-09-18T02:43:54.283Z,15.06
2018-09-18T02:44:54.273Z,15.06
2018-09-18T02:45:54.518Z,15.03
2018-09-18T02:46:54.247Z,14.96
2018-09-18T02:47:54.240Z,14.99
2018-09-18T02:48:54.227Z,15.09
2018-09-18T02:49:54.240Z,14.99
2018-09-18T02:50:54.207Z,15.02
2018-09-18T02:51:54.195Z,14.97
2018-09-18T02:52:54.183Z,14.96
2018-09-18T02:53:54.435Z,14.96
2018-09-18T02:54:54.278Z,14.86
2018-09-18T02:55:54.150Z,14.85
2018-09-18T02:56:54.136Z,14.73
2018-09-18T02:57:54.232Z,14.73
2018-09-18T02:58:54.119Z,14.69
2018-09-18T02:59:54.125Z,14.65
2018-09-18T03:00:54.097Z,14.58
2018-09-18T03:01:54.349Z,14.58
2018-09-18T03:02:54.109Z,14.45
2018-09-18T03:03:54.060Z,14.37
2018-09-18T03:04:54.052Z,14.30
2018-09-18T03:05:54.042Z,14.30
2018-09-18T03:06:54.039Z,14.33
2018-09-18T03:07:54.017Z,14.33
2018-09-18T03:08:54.010Z,14.29
2018-09-18T03:09:54.002Z,14.18
2018-09-18T03:10:53.990Z,14.10
2018-09-18T03:11:53.974Z,14.12
2018-09-18T03:12:53.975Z,14.14
2018-09-18T03:13:54.208Z,14.12
2018-09-18T03:14:54.213Z,14.08
2018-09-18T03:15:53.931Z,14.04
2018-09-18T03:16:53.925Z,14.04
2018-09-18T03:17:53.909Z,14.05
2018-09-18T03:18:53.981Z,14.05
2018-09-18T03:19:54.207Z,13.90
2018-09-18T03:20:53.988Z,13.95
2018-09-18T03:21:53.890Z,13.95
2018-09-18T03:22:53.851Z,13.97
2018-09-18T03:23:54.228Z,13.90
2018-09-18T03:24:53.832Z,13.90
2018-09-18T03:25:53.835Z,13.93
2018-09-18T03:26:54.498Z,13.90
2018-09-18T03:27:53.802Z,13.90
2018-09-18T03:28:53.829Z,13.97
2018-09-18T03:29:53.778Z,13.97
2018-09-18T03:30:53.768Z,14.04
2018-09-18T03:31:53.759Z,14.07
2018-09-18T03:32:54.069Z,14.07
2018-09-18T03:33:53.731Z,14.15
2018-09-18T03:34:53.987Z,14.12
2018-09-18T03:35:53.712Z,14.12
2018-09-18T03:36:53.762Z,14.10
2018-09-18T03:37:55.517Z,14.05
2018-09-18T03:38:53.694Z,14.05
2018-09-18T03:39:53.667Z,14.10
2018-09-18T03:40:53.658Z,14.08
2018-09-18T03:41:53.650Z,14.08
2018-09-18T03:42:53.904Z,14.04
2018-09-18T03:43:53.625Z,14.07
2018-09-18T03:44:53.625Z,14.03
2018-09-18T03:45:53.607Z,14.08
2018-09-18T03:46:53.691Z,14.10
2018-09-18T03:47:53.583Z,14.15
2018-09-18T03:48:53.571Z,14.18
2018-09-18T03:49:53.560Z,14.14
2018-09-18T03:50:53.564Z,14.15
2018-09-18T03:51:53.542Z,14.14
2018-09-18T03:52:53.527Z,14.12
2018-09-18T03:53:53.546Z,14.15
2018-09-18T03:54:53.508Z,14.15
2018-09-18T03:55:53.494Z,14.17
2018-09-18T03:56:53.759Z,14.23
2018-09-18T03:57:53.473Z,14.23
2018-09-18T03:58:53.462Z,14.11
2018-09-18T03:59:53.478Z,14.10
2018-09-18T04:00:53.438Z,14.10
2018-09-18T04:01:53.429Z,14.12
2018-09-18T04:02:53.501Z,14.08
2018-09-18T04:03:53.407Z,14.17
2018-09-18T04:04:53.406Z,14.03
2018-09-18T04:05:53.551Z,14.04
2018-09-18T04:06:53.396Z,13.97
2018-09-18T04:07:53.362Z,14.03
2018-09-18T04:08:53.350Z,14.05
2018-09-18T04:09:53.342Z,13.90
2018-09-18T04:10:53.349Z,14.03
2018-09-18T04:11:53.338Z,13.92
2018-09-18T04:12:53.576Z,14.00
2018-09-18T04:13:53.299Z,13.95
2018-09-18T04:14:53.284Z,13.89
2018-09-18T04:15:53.276Z,13.85
2018-09-18T04:16:53.271Z,13.90
2018-09-18T04:17:53.252Z,13.90
2018-09-18T04:18:53.257Z,13.92
2018-09-18T04:19:53.258Z,13.92
2018-09-18T04:20:53.488Z,13.90
2018-09-18T04:21:53.216Z,13.89
2018-09-18T04:22:53.467Z,13.95
2018-09-18T04:23:53.185Z,13.93
2018-09-18T04:24:53.178Z,13.92
2018-09-18T04:25:53.180Z,13.93
2018-09-18T04:26:53.431Z,13.86
2018-09-18T04:27:53.145Z,13.90
2018-09-18T04:28:53.146Z,13.92
2018-09-18T04:29:53.130Z,13.92
2018-09-18T04:30:53.118Z,13.89
2018-09-18T04:31:53.119Z,13.90
2018-09-18T04:32:53.090Z,13.90
2018-09-18T04:33:53.282Z,13.86
2018-09-18T04:34:53.101Z,13.92
2018-09-18T04:35:53.058Z,13.86
2018-09-18T04:36:53.045Z,13.90
2018-09-18T04:37:53.030Z,13.93
2018-09-18T04:38:53.045Z,13.87
2018-09-18T04:39:53.012Z,13.87
2018-09-18T04:40:53.274Z,13.90
2018-09-18T04:41:53.260Z,13.90
2018-09-18T04:42:52.989Z,13.89
2018-09-18T04:43:52.973Z,13.90
2018-09-18T04:44:53.081Z,13.93
2018-09-18T04:45:53.004Z,13.93
2018-09-18T04:46:52.953Z,13.90
2018-09-18T04:47:53.189Z,13.97
2018-09-18T04:48:53.184Z,13.93
2018-09-18T04:49:52.906Z,13.92
2018-09-18T04:50:53.157Z,13.99
2018-09-18T04:51:52.888Z,13.90
2018-09-18T04:52:52.867Z,13.95
2018-09-18T04:53:54.314Z,13.96
2018-09-18T04:54:52.910Z,13.99
2018-09-18T04:55:53.108Z,14.07
2018-09-18T04:56:52.843Z,14.08
2018-09-18T04:57:52.832Z,14.08
2018-09-18T04:58:52.803Z,14.07
2018-09-18T04:59:52.796Z,14.12
2018-09-18T05:00:52.785Z,14.10
2018-09-18T05:01:52.827Z,14.14
2018-09-18T05:02:52.763Z,14.15
2018-09-18T05:03:53.033Z,14.12
2018-09-18T05:04:52.744Z,14.18
2018-09-18T05:05:52.732Z,14.15
2018-09-18T05:06:52.722Z,14.22
2018-09-18T05:07:52.713Z,14.23
2018-09-18T05:08:52.699Z,14.18
2018-09-18T05:09:52.702Z,14.25
2018-09-18T05:10:53.077Z,14.28
2018-09-18T05:11:52.665Z,14.29
2018-09-18T05:12:52.657Z,14.28
2018-09-18T05:13:52.677Z,14.35
2018-09-18T05:14:52.657Z,14.37
2018-09-18T05:15:52.634Z,14.36
2018-09-18T05:16:52.612Z,14.35
2018-09-18T05:17:52.601Z,14.41
2018-09-18T05:18:52.590Z,14.41
2018-09-18T05:19:52.599Z,14.47
2018-09-18T05:20:52.562Z,14.40
2018-09-18T05:21:53.109Z,14.45
2018-09-18T05:22:53.072Z,14.44
2018-09-18T05:23:52.588Z,14.44
2018-09-18T05:24:52.522Z,14.40
2018-09-18T05:25:52.781Z,14.45
2018-09-18T05:26:53.504Z,14.45
2018-09-18T05:27:52.497Z,14.48
2018-09-18T05:28:52.477Z,14.53
2018-09-18T05:29:52.734Z,14.59
2018-09-18T05:30:52.458Z,14.65
2018-09-18T05:31:52.443Z,14.70
2018-09-18T05:32:52.467Z,14.70
2018-09-18T05:33:52.427Z,14.68
2018-09-18T05:34:52.688Z,14.72
2018-09-18T05:35:52.413Z,14.69
2018-09-18T05:36:52.474Z,14.77
2018-09-18T05:37:52.397Z,14.82
2018-09-18T05:38:52.386Z,14.82
2018-09-18T05:39:52.470Z,14.97
2018-09-18T05:40:52.624Z,15.00
2018-09-18T05:41:52.367Z,14.99
2018-09-18T05:42:52.347Z,15.00
2018-09-18T05:43:52.320Z,15.10
2018-09-18T05:44:52.317Z,15.14
2018-09-18T05:45:52.309Z,15.24
2018-09-18T05:46:52.282Z,15.37
2018-09-18T05:47:52.545Z,15.73
2018-09-18T05:48:52.540Z,16.15
2018-09-18T05:49:52.257Z,16.56
2018-09-18T05:50:52.504Z,16.81
2018-09-18T05:51:52.632Z,17.05
2018-09-18T05:52:52.226Z,17.15
2018-09-18T05:53:52.205Z,17.05
2018-09-18T05:54:52.401Z,16.97
2018-09-18T05:55:52.184Z,16.81
2018-09-18T05:56:52.436Z,16.75
2018-09-18T05:57:52.430Z,16.60
2018-09-18T05:58:52.165Z,16.56
2018-09-18T05:59:52.154Z,16.53
2018-09-18T06:00:52.127Z,16.49
2018-09-18T06:01:52.192Z,16.42
2018-09-18T06:02:52.373Z,16.43
2018-09-18T06:03:52.365Z,16.43
2018-09-18T06:04:52.105Z,16.42
2018-09-18T06:05:52.080Z,16.43
2018-09-18T06:06:52.194Z,16.49
2018-09-18T06:07:52.051Z,16.46
2018-09-18T06:08:52.171Z,16.56
2018-09-18T06:09:52.037Z,16.47
2018-09-18T06:10:52.021Z,16.54
2018-09-18T06:11:52.431Z,16.57
2018-09-18T06:12:51.998Z,16.56
2018-09-18T06:13:52.258Z,16.56
2018-09-18T06:14:53.281Z,16.72
2018-09-18T06:16:03.316Z,16.74
2018-09-18T06:16:52.504Z,16.74
2018-09-18T06:17:52.218Z,16.79
2018-09-18T06:18:51.995Z,16.76
2018-09-18T06:19:51.923Z,16.81
2018-09-18T06:20:51.907Z,16.78
2018-09-18T06:21:51.905Z,16.86
2018-09-18T06:22:51.912Z,16.90
2018-09-18T06:23:51.908Z,16.96
2018-09-18T06:24:51.886Z,16.99
2018-09-18T06:25:51.850Z,17.09
2018-09-18T06:26:51.849Z,17.16
2018-09-18T06:27:51.834Z,17.15
2018-09-18T06:28:51.821Z,17.16
2018-09-18T06:29:52.354Z,17.27
2018-09-18T06:30:51.798Z,17.20
2018-09-18T06:31:51.797Z,17.27
2018-09-18T06:32:51.777Z,17.29
2018-09-18T06:33:51.770Z,17.36
2018-09-18T06:34:51.764Z,17.36
2018-09-18T06:35:51.765Z,17.33
2018-09-18T06:36:52.126Z,17.41
2018-09-18T06:37:51.980Z,17.44
2018-09-18T06:38:51.759Z,17.44
2018-09-18T06:39:51.725Z,17.45
2018-09-18T06:40:51.701Z,17.52
2018-09-18T06:41:51.708Z,17.54
2018-09-18T06:42:52.220Z,17.63
2018-09-18T06:43:52.064Z,17.70
2018-09-18T06:44:51.653Z,17.71
2018-09-18T06:45:52.014Z,17.67
2018-09-18T06:46:51.646Z,17.76
2018-09-18T06:47:51.816Z,17.90
2018-09-18T06:48:51.742Z,17.86
2018-09-18T06:49:51.593Z,17.94
2018-09-18T06:50:51.578Z,17.95
2018-09-18T06:51:51.847Z,18.04
2018-09-18T06:52:51.710Z,18.01
2018-09-18T06:53:51.558Z,18.11
2018-09-18T06:54:51.544Z,18.10
2018-09-18T06:55:51.532Z,18.18
2018-09-18T06:56:51.796Z,18.20
2018-09-18T06:57:51.580Z,18.26
2018-09-18T06:58:51.506Z,18.38
2018-09-18T06:59:51.534Z,18.35
2018-09-18T07:00:51.489Z,18.38
2018-09-18T07:01:51.469Z,18.44
2018-09-18T07:02:51.448Z,18.53
2018-09-18T07:03:51.453Z,18.49
2018-09-18T07:04:51.447Z,18.53
2018-09-18T07:05:51.418Z,18.56
2018-09-18T07:06:51.685Z,18.59
2018-09-18T07:07:51.397Z,18.60
2018-09-18T07:08:51.657Z,18.62
2018-09-18T07:09:51.376Z,18.70
2018-09-18T07:10:51.639Z,18.75
2018-09-18T07:11:51.352Z,18.88
2018-09-18T07:12:51.686Z,18.88
2018-09-18T07:13:51.345Z,18.92
2018-09-18T07:14:51.326Z,19.02
2018-09-18T07:15:51.404Z,19.02
2018-09-18T07:16:51.331Z,19.08
2018-09-18T07:17:51.679Z,19.07
2018-09-18T07:18:51.543Z,19.18
2018-09-18T07:19:51.533Z,19.21
2018-09-18T07:20:51.257Z,19.29
2018-09-18T07:21:51.269Z,19.31
2018-09-18T07:22:51.240Z,19.39
2018-09-18T07:23:51.485Z,19.39
2018-09-18T07:24:51.536Z,19.51
2018-09-18T07:25:51.200Z,19.48
2018-09-18T07:26:51.553Z,19.52
2018-09-18T07:27:51.300Z,19.47
2018-09-18T07:28:51.175Z,19.52
2018-09-18T07:29:51.166Z,19.55
2018-09-18T07:30:51.144Z,19.62
2018-09-18T07:31:51.387Z,19.66
2018-09-18T07:32:51.127Z,19.62
2018-09-18T07:33:54.481Z,19.67
2018-09-18T07:34:51.109Z,19.71
2018-09-18T07:35:51.093Z,19.70
2018-09-18T07:36:51.455Z,19.81
2018-09-18T07:38:59.966Z,19.86
2018-09-18T07:40:00.952Z,19.88
2018-09-18T07:41:01.016Z,19.88
2018-09-18T07:42:00.934Z,19.95
2018-09-18T07:43:00.926Z,19.91
2018-09-18T07:44:00.919Z,19.94
2018-09-18T07:45:00.902Z,20.02
2018-09-18T07:46:00.880Z,20.11
2018-09-18T07:47:00.950Z,20.13
2018-09-18T07:48:00.889Z,20.02
2018-09-18T07:49:00.859Z,20.14
2018-09-18T07:50:01.111Z,20.10
2018-09-18T07:51:00.816Z,20.14
2018-09-18T07:52:00.883Z,20.25
2018-09-18T07:53:00.824Z,20.31
2018-09-18T07:54:00.786Z,20.37
2018-09-18T07:55:00.784Z,20.48
2018-09-18T07:56:01.043Z,20.48
2018-09-18T07:57:00.752Z,20.56
2018-09-18T07:58:00.758Z,20.60
2018-09-18T07:59:01.009Z,20.63
2018-09-18T08:00:00.735Z,20.59
2018-09-18T08:01:00.718Z,20.72
2018-09-18T08:02:00.700Z,20.75
2018-09-18T08:03:00.715Z,20.74
2018-09-18T08:04:00.952Z,20.77
2018-09-18T08:05:00.944Z,20.92
2018-09-18T08:06:01.005Z,20.85
2018-09-18T08:07:00.671Z,20.96
2018-09-18T08:08:00.645Z,21.02
2018-09-18T08:09:00.627Z,21.11
2018-09-18T08:10:00.615Z,21.14
2018-09-18T08:11:00.722Z,21.11
2018-09-18T08:12:00.610Z,21.21
2018-09-18T08:13:00.668Z,21.18
2018-09-18T08:14:00.851Z,21.27
2018-09-18T08:15:00.617Z,21.25
2018-09-18T08:16:00.851Z,21.25
2018-09-18T08:17:00.935Z,21.29
2018-09-18T08:18:00.685Z,21.43
2018-09-18T08:19:00.660Z,21.42
2018-09-18T08:20:00.507Z,21.46
2018-09-18T08:21:00.490Z,21.51
2018-09-18T08:22:00.488Z,21.55
2018-09-18T08:23:00.490Z,21.67
2018-09-18T08:24:00.456Z,21.61
2018-09-18T08:25:00.714Z,21.62
2018-09-18T08:26:00.444Z,21.77
2018-09-18T08:27:00.427Z,21.82
2018-09-18T08:28:00.421Z,21.88
2018-09-18T08:29:00.415Z,21.82
2018-09-18T08:30:00.426Z,21.85
2018-09-18T08:31:00.656Z,21.89
2018-09-18T08:32:00.370Z,21.92
2018-09-18T08:33:00.451Z,21.93
2018-09-18T08:34:00.633Z,21.98
2018-09-18T08:35:00.357Z,21.99
2018-09-18T08:36:00.448Z,22.14
2018-09-18T08:37:00.723Z,22.18
2018-09-18T08:38:00.326Z,22.28
2018-09-18T08:39:00.322Z,22.26
2018-09-18T08:40:00.910Z,22.33
2018-09-18T08:41:00.299Z,22.51
2018-09-18T08:42:00.273Z,22.50
2018-09-18T08:43:03.519Z,22.55
2018-09-18T08:44:00.275Z,22.72
2018-09-18T08:45:00.565Z,22.66
2018-09-18T08:46:00.267Z,22.75
2018-09-18T08:47:00.214Z,22.72
2018-09-18T08:48:00.221Z,22.66
2018-09-18T08:49:00.541Z,22.73
2018-09-18T08:50:01.342Z,22.80
2018-09-18T08:51:00.175Z,22.73
2018-09-18T08:52:00.254Z,22.96
2018-09-18T08:53:00.411Z,22.93
2018-09-18T08:54:00.158Z,22.85
2018-09-18T08:55:00.519Z,22.94
2018-09-18T08:56:00.195Z,22.99
2018-09-18T08:57:00.389Z,22.98
2018-09-18T08:58:00.109Z,23.02
2018-09-18T08:59:00.355Z,23.17
2018-09-18T09:00:00.341Z,23.18
2018-09-18T09:01:00.077Z,23.31
2018-09-18T09:02:00.322Z,23.31
2018-09-18T09:03:00.036Z,23.55
2018-09-18T09:04:01.124Z,23.63
2018-09-18T09:05:00.051Z,23.71
2018-09-18T09:06:00.285Z,23.80
2018-09-18T09:07:00.003Z,23.87
2018-09-18T09:08:00.183Z,23.78
2018-09-18T09:09:00.005Z,23.88
2018-09-18T09:09:59.979Z,23.87
2018-09-18T09:10:59.962Z,23.91
2018-09-18T09:12:00.296Z,23.93
2018-09-18T09:12:59.926Z,24.02
2018-09-18T09:14:00.091Z,24.03
2018-09-18T09:15:00.180Z,24.02
2018-09-18T09:15:59.918Z,24.13
2018-09-18T09:16:59.899Z,24.17
2018-09-18T09:17:59.966Z,24.23
2018-09-18T09:18:59.893Z,24.17
2018-09-18T09:20:00.121Z,24.23
2018-09-18T09:21:00.078Z,24.28
2018-09-18T09:21:59.897Z,24.30
2018-09-18T09:23:00.494Z,24.29
2018-09-18T09:23:59.814Z,24.30
2018-09-18T09:24:59.906Z,24.42
2018-09-18T09:25:59.792Z,24.48
2018-09-18T09:26:59.990Z,24.47
2018-09-18T09:27:59.827Z,24.51
2018-09-18T09:28:59.757Z,24.65
2018-09-18T09:30:01.302Z,24.69
2018-09-18T09:30:59.753Z,24.70
2018-09-18T09:31:59.730Z,24.77
2018-09-18T09:32:59.702Z,24.74
2018-09-18T09:33:59.732Z,24.84
2018-09-18T09:34:59.675Z,24.89
2018-09-18T09:35:59.678Z,24.96
2018-09-18T09:36:59.739Z,24.99
2018-09-18T09:37:59.859Z,25.07
2018-09-18T09:38:59.639Z,25.04
2018-09-18T09:39:59.633Z,25.17
2018-09-18T09:41:00.161Z,25.25
2018-09-18T09:42:00.378Z,25.26
2018-09-18T09:42:59.599Z,25.33
2018-09-18T09:43:59.845Z,25.44
2018-09-18T09:44:59.733Z,25.50
2018-09-18T09:45:59.734Z,25.48
2018-09-18T09:46:59.837Z,25.58
2018-09-18T09:47:59.590Z,25.59
2018-09-18T09:48:59.522Z,25.80
2018-09-18T09:49:59.564Z,25.84
2018-09-18T09:50:59.526Z,25.88
2018-09-18T09:51:59.519Z,25.87
2018-09-18T09:52:59.747Z,25.93
2018-09-18T09:53:59.785Z,25.83
2018-09-18T09:54:59.693Z,25.87
2018-09-18T09:55:59.455Z,25.87
2018-09-18T09:56:59.569Z,25.84
2018-09-18T09:57:59.433Z,25.80
2018-09-18T09:58:59.415Z,25.85
2018-09-18T09:59:59.416Z,25.93
2018-09-18T10:01:00.698Z,25.87
2018-09-18T10:01:59.398Z,25.91
2018-09-18T10:02:59.705Z,25.93
2018-09-18T10:03:59.365Z,25.96
2018-09-18T10:04:59.368Z,25.96
2018-09-18T10:05:59.380Z,25.95
2018-09-18T10:06:59.330Z,26.05
2018-09-18T10:07:59.336Z,26.05
2018-09-18T10:08:59.311Z,26.10
2018-09-18T10:09:59.423Z,26.13
2018-09-18T10:10:59.328Z,26.15
2018-09-18T10:11:59.376Z,26.23
2018-09-18T10:12:59.268Z,26.21
2018-09-18T10:13:59.254Z,26.23
2018-09-18T10:14:59.316Z,26.23
2018-09-18T10:15:59.252Z,26.37
2018-09-18T10:16:59.489Z,26.38
2018-09-18T10:17:59.606Z,26.38
2018-09-18T10:18:59.205Z,26.40
2018-09-18T10:19:59.185Z,26.45
2018-09-18T10:20:59.196Z,26.51
2018-09-18T10:21:59.168Z,26.47
2018-09-18T10:22:59.157Z,26.63
2018-09-18T10:23:59.505Z,26.68
2018-09-18T10:24:59.173Z,26.73
2018-09-18T10:25:59.149Z,26.80
2018-09-18T10:26:59.238Z,26.80
2018-09-18T10:27:59.162Z,26.88
2018-09-18T10:28:59.124Z,26.89
2018-09-18T10:29:59.345Z,26.95
2018-09-18T10:30:59.078Z,26.92
2018-09-18T10:31:59.055Z,26.97
2018-09-18T10:32:59.068Z,27.03
2018-09-18T10:33:59.037Z,27.03
2018-09-18T10:34:59.026Z,27.14
2018-09-18T10:35:59.033Z,27.21
2018-09-18T10:37:00.366Z,27.17
2018-09-18T10:37:59.097Z,27.30
2018-09-18T10:38:59.087Z,27.35
2018-09-18T10:39:58.987Z,27.29
2018-09-18T10:40:59.047Z,27.39
2018-09-18T10:41:59.367Z,27.45
2018-09-18T10:42:58.970Z,27.51
2018-09-18T10:43:58.971Z,27.52
2018-09-18T10:44:58.938Z,27.51
2018-09-18T10:45:59.419Z,27.51
2018-09-18T10:46:58.896Z,27.59
2018-09-18T10:47:58.997Z,27.60
2018-09-18T10:48:58.876Z,27.67
2018-09-18T10:49:59.003Z,27.63
2018-09-18T10:50:58.854Z,27.75
2018-09-18T10:51:58.841Z,27.75
2018-09-18T10:52:58.937Z,27.74
2018-09-18T10:53:59.067Z,27.80
2018-09-18T10:54:58.829Z,27.87
2018-09-18T10:55:58.806Z,27.90
2018-09-18T10:56:58.782Z,28.10
2018-09-18T10:57:58.783Z,28.08
2018-09-18T10:58:58.901Z,28.10
2018-09-18T10:59:58.765Z,28.23
2018-09-18T11:01:07.920Z,28.23
2018-09-18T11:01:58.790Z,28.27
2018-09-18T11:02:58.720Z,28.30
2018-09-18T11:03:58.727Z,28.37
2018-09-18T11:04:59.003Z,28.29
2018-09-18T11:05:58.964Z,28.33
2018-09-18T11:06:58.799Z,28.33
2018-09-18T11:07:59.801Z,28.41
2018-09-18T11:08:58.882Z,28.44
2018-09-18T11:09:58.807Z,28.47
2018-09-18T11:11:00.914Z,28.47
2018-09-18T11:11:58.749Z,28.51
2018-09-18T11:12:58.609Z,28.52
2018-09-18T11:13:58.674Z,28.52
2018-09-18T11:14:58.658Z,28.66
2018-09-18T11:16:00.317Z,28.62
2018-09-18T11:16:58.649Z,28.60
2018-09-18T11:17:58.592Z,28.75
2018-09-18T11:18:58.577Z,28.67
2018-09-18T11:19:58.574Z,28.74
2018-09-18T11:20:58.527Z,28.75
2018-09-18T11:21:58.815Z,28.74
2018-09-18T11:22:58.517Z,28.81
2018-09-18T11:23:58.582Z,28.82
2018-09-18T11:24:58.504Z,28.82
2018-09-18T11:25:59.085Z,28.89
2018-09-18T11:26:58.466Z,28.96
2018-09-18T11:27:58.476Z,28.94
2018-09-18T11:28:58.549Z,28.97
2018-09-18T11:29:58.490Z,29.08
2018-09-18T11:30:58.433Z,29.08
2018-09-18T11:31:58.474Z,29.13
2018-09-18T11:32:58.489Z,29.23
2018-09-18T11:33:58.404Z,29.26
2018-09-18T11:34:59.400Z,29.29
2018-09-18T11:35:59.371Z,29.34
2018-09-18T11:36:58.373Z,29.31
2018-09-18T11:37:58.368Z,29.29
2018-09-18T11:38:58.327Z,29.32
2018-09-18T11:39:58.338Z,29.35
2018-09-18T11:40:58.312Z,29.32
2018-09-18T11:41:58.314Z,29.38
2018-09-18T11:42:58.293Z,29.35
2018-09-18T11:43:58.279Z,29.50
2018-09-18T11:44:58.272Z,29.49
2018-09-18T11:45:58.541Z,29.42
2018-09-18T11:46:58.746Z,29.50
2018-09-18T11:47:58.616Z,29.45
2018-09-18T11:48:58.223Z,29.53
2018-09-18T11:49:58.240Z,29.53
2018-09-18T11:50:58.193Z,29.50
2018-09-18T11:51:58.202Z,29.57
2018-09-18T11:52:58.523Z,29.56
2018-09-18T11:53:58.444Z,29.57
2018-09-18T11:55:02.403Z,29.56
2018-09-18T11:55:58.423Z,29.73
2018-09-18T11:56:58.423Z,29.72
2018-09-18T11:57:58.147Z,29.91
2018-09-18T11:58:58.380Z,29.87
2018-09-18T11:59:58.113Z,29.87
2018-09-18T12:00:58.086Z,29.79
2018-09-18T12:01:58.081Z,29.90
2018-09-18T12:02:58.147Z,30.03
2018-09-18T12:03:58.071Z,30.15
2018-09-18T12:04:58.104Z,30.23
2018-09-18T12:05:58.316Z,30.27
2018-09-18T12:06:58.031Z,30.18
2018-09-18T12:07:58.023Z,30.16
2018-09-18T12:08:58.377Z,30.24
2018-09-18T12:09:57.993Z,30.32
2018-09-18T12:10:57.976Z,30.39
2018-09-18T12:11:57.968Z,30.39
2018-09-18T12:12:57.981Z,30.54
2018-09-18T12:13:58.061Z,30.43
2018-09-18T12:14:57.936Z,30.43
2018-09-18T12:15:57.936Z,30.37
2018-09-18T12:16:59.102Z,30.30
2018-09-18T12:17:57.919Z,30.30
2018-09-18T12:18:58.237Z,30.31
2018-09-18T12:19:57.896Z,30.31
2018-09-18T12:20:57.904Z,30.24
2018-09-18T12:21:58.143Z,30.23
2018-09-18T12:22:57.895Z,30.35
2018-09-18T12:23:57.851Z,30.46
2018-09-18T12:24:58.224Z,30.53
2018-09-18T12:25:57.836Z,30.53
2018-09-18T12:26:58.805Z,30.75
2018-09-18T12:27:57.797Z,30.84
2018-09-18T12:28:57.826Z,30.91
2018-09-18T12:29:57.792Z,30.92
2018-09-18T12:30:57.918Z,30.80
2018-09-18T12:31:57.792Z,30.68
2018-09-18T12:32:57.745Z,30.66
2018-09-18T12:33:57.746Z,30.65
2018-09-18T12:34:57.735Z,30.55
2018-09-18T12:35:57.751Z,30.59
2018-09-18T12:36:57.704Z,30.61
2018-09-18T12:37:58.022Z,30.63
2018-09-18T12:38:57.962Z,30.57
2018-09-18T12:39:57.669Z,30.57
2018-09-18T12:40:57.674Z,30.54
2018-09-18T12:41:57.762Z,30.35
2018-09-18T12:42:57.640Z,30.31
2018-09-18T12:43:57.648Z,30.25
2018-09-18T12:44:57.648Z,30.24
2018-09-18T12:45:58.497Z,30.28
2018-09-18T12:46:57.747Z,30.21
2018-09-18T12:47:57.681Z,30.21
2018-09-18T12:48:57.668Z,30.23
2018-09-18T12:49:58.189Z,30.24
2018-09-18T12:50:57.613Z,30.31
2018-09-18T12:51:57.570Z,30.34
2018-09-18T12:52:57.807Z,30.40
2018-09-18T12:53:57.549Z,30.47